createdAt,value
2023-06-07T00:00:41.067Z,100790.85
2023-06-07T00:03:11.094Z,100786.09
2023-06-07T00:05:40.509Z,100783.69
2023-06-07T00:08:08.686Z,100787.28
2023-06-07T00:10:39.993Z,100787.28
2023-06-07T00:13:07.539Z,100787.55
2023-06-07T00:15:35.116Z,100787.13
2023-06-07T00:18:03.388Z,100784.57
2023-06-07T00:20:32.194Z,100781.73
2023-06-07T00:22:59.914Z,100786.13
2023-06-07T00:25:27.580Z,100784.23
2023-06-07T00:27:55.442Z,100785.09
2023-06-07T00:30:23.258Z,100787.22
2023-06-07T00:32:51.058Z,100784.77
2023-06-07T00:35:18.856Z,100789.77
2023-06-07T00:37:46.569Z,100789.83
2023-06-07T00:40:14.212Z,100790.14
2023-06-07T00:42:42.046Z,100799.18
2023-06-07T00:45:10.411Z,100799.65
2023-06-07T00:47:40.104Z,100804.50
2023-06-07T00:50:08.911Z,100800.92
2023-06-07T00:52:37.466Z,100800.81
2023-06-07T00:55:06.794Z,100799.89
2023-06-07T00:57:36.593Z,100798.31
2023-06-07T01:00:07.987Z,100799.36
2023-06-07T01:02:36.385Z,100801.41
2023-06-07T01:05:04.273Z,100798.21
2023-06-07T01:07:33.944Z,100795.49
2023-06-07T01:10:04.082Z,100797.55
2023-06-07T01:12:36.983Z,100799.17
2023-06-07T01:15:05.829Z,100807.53
2023-06-07T01:17:38.886Z,100805.65
2023-06-07T01:20:20.968Z,100805.67
2023-06-07T01:22:52.473Z,100804.90
2023-06-07T01:25:21.410Z,100802.42
2023-06-07T01:27:53.749Z,100802.92
2023-06-07T01:30:24.074Z,100801.04
2023-06-07T01:32:53.427Z,100800.09
2023-06-07T01:35:22.268Z,100803.55
2023-06-07T01:37:50.974Z,100804.86
2023-06-07T01:40:20.846Z,100802.84
2023-06-07T01:42:49.868Z,100804.92
2023-06-07T01:45:18.501Z,100803.67
2023-06-07T01:47:46.785Z,100801.77
2023-06-07T01:50:21.768Z,100802.58
2023-06-07T01:52:49.448Z,100806.55
2023-06-07T01:55:18.678Z,100811.37
2023-06-07T01:57:53.457Z,100810.83
2023-06-07T02:00:34.522Z,100815.65
2023-06-07T02:03:50.151Z,100819.14
2023-06-07T02:06:21.988Z,100820.52
2023-06-07T02:08:54.446Z,100821.95
2023-06-07T02:11:25.415Z,100820.61
2023-06-07T02:13:54.335Z,100822.44
2023-06-07T02:16:38.881Z,100828.91
2023-06-07T02:19:10.531Z,100831.46
2023-06-07T02:21:50.550Z,100833.99
2023-06-07T02:24:18.950Z,100832.86
2023-06-07T02:26:46.669Z,100831.36
2023-06-07T02:29:15.165Z,100831.08
2023-06-07T02:31:42.848Z,100826.82
2023-06-07T02:34:10.555Z,100827.95
2023-06-07T02:36:41.195Z,100828.74
2023-06-07T02:39:12.747Z,100831.03
2023-06-07T02:41:40.350Z,100830.47
2023-06-07T02:44:08.063Z,100829.45
2023-06-07T02:46:35.676Z,100834.30
2023-06-07T02:49:03.388Z,100830.70
2023-06-07T02:51:31.662Z,100831.05
2023-06-07T02:54:00.493Z,100832.21
2023-06-07T02:56:30.659Z,100831.66
2023-06-07T02:58:58.516Z,100831.63
2023-06-07T03:01:28.705Z,100835.73
2023-06-07T03:03:58.293Z,100830.23
2023-06-07T03:06:30.087Z,100831.14
2023-06-07T03:08:59.769Z,100829.41
2023-06-07T03:11:27.779Z,100834.67
2023-06-07T03:13:56.041Z,100831.70
2023-06-07T03:16:28.158Z,100829.31
2023-06-07T03:18:59.542Z,100823.48
2023-06-07T03:21:27.585Z,100824.38
2023-06-07T03:23:55.908Z,100820.77
2023-06-07T03:26:23.956Z,100821.71
2023-06-07T03:28:51.956Z,100821.70
2023-06-07T03:31:20.609Z,100819.33
2023-06-07T03:33:52.903Z,100820.89
2023-06-07T03:36:22.794Z,100818.52
2023-06-07T03:38:51.368Z,100818.55
2023-06-07T03:41:19.014Z,100817.83
2023-06-07T03:43:46.657Z,100818.36
2023-06-07T03:46:14.453Z,100819.34
2023-06-07T03:48:42.319Z,100816.61
2023-06-07T03:51:10.234Z,100817.41
2023-06-07T03:53:39.840Z,100813.65
2023-06-07T03:56:08.024Z,100816.52
2023-06-07T03:58:37.289Z,100810.70
2023-06-07T04:01:09.590Z,100811.70
2023-06-07T04:03:37.357Z,100806.72
2023-06-07T04:06:06.632Z,100805.01
2023-06-07T04:08:37.718Z,100808.27
2023-06-07T04:11:06.007Z,100810.67
2023-06-07T04:13:33.578Z,100813.47
2023-06-07T04:16:01.949Z,100812.15
2023-06-07T04:18:30.320Z,100812.80
2023-06-07T04:20:58.024Z,100812.02
2023-06-07T04:23:26.503Z,100808.61
2023-06-07T04:25:57.084Z,100806.83
2023-06-07T04:28:25.515Z,100804.66
2023-06-07T04:30:58.609Z,100809.42
2023-06-07T04:33:29.134Z,100806.38
2023-06-07T04:35:59.221Z,100804.28
2023-06-07T04:38:27.496Z,100801.18
2023-06-07T04:41:02.321Z,100800.02
2023-06-07T04:43:39.204Z,100799.48
2023-06-07T04:46:10.795Z,100802.47
2023-06-07T04:48:42.620Z,100804.71
2023-06-07T04:51:11.557Z,100798.77
2023-06-07T04:53:44.468Z,100801.24
2023-06-07T04:56:15.528Z,100803.48
2023-06-07T04:58:44.275Z,100801.86
2023-06-07T05:01:14.815Z,100803.75
2023-06-07T05:03:44.091Z,100802.09
2023-06-07T05:06:20.245Z,100798.04
2023-06-07T05:08:50.706Z,100798.49
2023-06-07T05:11:18.637Z,100794.70
2023-06-07T05:13:48.035Z,100792.61
2023-06-07T05:16:18.848Z,100787.48
2023-06-07T05:18:50.539Z,100783.60
2023-06-07T05:21:19.700Z,100784.92
2023-06-07T05:23:47.429Z,100780.26
2023-06-07T05:26:15.111Z,100785.23
2023-06-07T05:28:43.193Z,100779.31
2023-06-07T05:31:12.511Z,100781.84
2023-06-07T05:33:41.303Z,100785.88
2023-06-07T05:36:09.421Z,100786.00
2023-06-07T05:38:38.029Z,100782.77
2023-06-07T05:41:05.592Z,100782.27
2023-06-07T05:43:33.276Z,100779.23
2023-06-07T05:46:01.608Z,100781.41
2023-06-07T05:48:29.346Z,100783.70
2023-06-07T05:50:58.451Z,100779.52
2023-06-07T05:53:27.323Z,100776.34
2023-06-07T05:55:55.502Z,100778.05
2023-06-07T05:58:23.192Z,100777.66
2023-06-07T06:00:51.049Z,100781.68
2023-06-07T06:03:19.827Z,100781.52
2023-06-07T06:05:47.569Z,100779.43
2023-06-07T06:08:17.096Z,100779.42
2023-06-07T06:10:46.286Z,100779.89
2023-06-07T06:13:13.974Z,100773.31
2023-06-07T06:15:41.720Z,100775.23
2023-06-07T06:18:09.476Z,100775.25
2023-06-07T06:20:37.801Z,100773.44
2023-06-07T06:23:05.889Z,100775.47
2023-06-07T06:25:33.789Z,100775.36
2023-06-07T06:28:01.546Z,100773.38
2023-06-07T06:30:29.226Z,100773.14
2023-06-07T06:32:56.872Z,100768.30
2023-06-07T06:35:27.208Z,100767.95
2023-06-07T06:37:54.751Z,100765.40
2023-06-07T06:40:22.463Z,100767.36
2023-06-07T06:42:50.330Z,100766.95
2023-06-07T06:45:23.749Z,100764.34
2023-06-07T06:47:51.485Z,100764.30
2023-06-07T06:50:32.182Z,100764.54
2023-06-07T06:53:01.583Z,100771.66
2023-06-07T06:55:30.522Z,100768.63
2023-06-07T06:57:59.565Z,100770.32
2023-06-07T07:00:27.354Z,100764.81
2023-06-07T07:02:55.139Z,100771.83
2023-06-07T07:05:22.992Z,100773.33
2023-06-07T07:07:51.249Z,100773.55
2023-06-07T07:10:22.034Z,100772.98
2023-06-07T07:12:49.818Z,100769.78
2023-06-07T07:15:17.559Z,100773.11
2023-06-07T07:17:49.851Z,100777.13
2023-06-07T07:20:19.489Z,100781.48
2023-06-07T07:22:48.038Z,100778.51
2023-06-07T07:25:17.965Z,100779.77
2023-06-07T07:27:45.813Z,100779.89
2023-06-07T07:30:13.637Z,100775.63
2023-06-07T07:32:41.718Z,100778.86
2023-06-07T07:35:09.524Z,100776.15
2023-06-07T07:37:39.681Z,100780.88
2023-06-07T07:40:10.859Z,100781.60
2023-06-07T07:42:43.450Z,100779.15
2023-06-07T07:45:11.601Z,100779.45
2023-06-07T07:47:39.450Z,100779.70
2023-06-07T07:50:08.917Z,100775.70
2023-06-07T07:52:37.333Z,100779.07
2023-06-07T07:55:06.669Z,100777.58
2023-06-07T07:57:35.676Z,100770.34
2023-06-07T08:00:07.417Z,100772.21
2023-06-07T08:02:40.644Z,100769.35
2023-06-07T08:05:08.959Z,100769.96
2023-06-07T08:07:37.247Z,100767.97
2023-06-07T08:10:06.451Z,100770.01
2023-06-07T08:12:35.398Z,100772.34
2023-06-07T08:15:04.467Z,100771.89
2023-06-07T08:17:32.231Z,100769.33
2023-06-07T08:19:59.954Z,100771.40
2023-06-07T08:22:27.655Z,100766.80
2023-06-07T08:24:55.281Z,100767.14
2023-06-07T08:27:22.936Z,100766.30
2023-06-07T08:29:50.662Z,100766.98
2023-06-07T08:32:18.808Z,100766.08
2023-06-07T08:34:46.579Z,100763.39
2023-06-07T08:37:14.638Z,100766.02
2023-06-07T08:39:42.486Z,100769.30
2023-06-07T08:42:12.447Z,100771.44
2023-06-07T08:44:41.905Z,100769.59
2023-06-07T08:47:13.447Z,100763.80
2023-06-07T08:49:42.000Z,100768.06
2023-06-07T08:52:16.182Z,100769.13
2023-06-07T08:54:48.527Z,100769.71
2023-06-07T08:57:19.910Z,100768.90
2023-06-07T08:59:49.840Z,100767.48
2023-06-07T09:02:18.752Z,100765.88
2023-06-07T09:04:47.814Z,100767.20
2023-06-07T09:07:16.042Z,100756.42
2023-06-07T09:09:45.116Z,100765.55
2023-06-07T09:12:12.897Z,100762.89
2023-06-07T09:14:41.471Z,100763.52
2023-06-07T09:17:09.598Z,100761.85
2023-06-07T09:19:38.583Z,100761.40
2023-06-07T09:22:08.638Z,100752.38
2023-06-07T09:24:38.240Z,100762.26
2023-06-07T09:27:06.298Z,100755.15
2023-06-07T09:29:44.173Z,100749.10
2023-06-07T09:32:25.437Z,100759.67
2023-06-07T09:35:12.414Z,100752.20
2023-06-07T09:37:47.119Z,100755.76
2023-06-07T09:40:16.508Z,100755.76
2023-06-07T09:42:44.943Z,100755.23
2023-06-07T09:45:17.342Z,100755.64
2023-06-07T09:47:45.078Z,100754.38
2023-06-07T09:50:14.367Z,100756.81
2023-06-07T09:52:42.240Z,100751.75
2023-06-07T09:55:27.403Z,100753.73
2023-06-07T09:57:56.835Z,100754.20
2023-06-07T10:00:26.133Z,100748.77
2023-06-07T10:03:07.276Z,100741.91
2023-06-07T10:05:36.218Z,100737.12
2023-06-07T10:08:06.331Z,100736.90
2023-06-07T10:10:36.301Z,100737.61
2023-06-07T10:13:07.312Z,100739.04
2023-06-07T10:15:36.835Z,100735.51
2023-06-07T10:18:16.868Z,100734.64
2023-06-07T10:20:58.649Z,100736.72
2023-06-07T10:23:36.697Z,100730.34
2023-06-07T10:26:14.088Z,100730.48
2023-06-07T10:28:47.736Z,100728.44
2023-06-07T10:31:17.490Z,100727.52
2023-06-07T10:33:46.414Z,100729.16
2023-06-07T10:36:15.209Z,100724.36
2023-06-07T10:38:43.884Z,100722.33
2023-06-07T10:41:14.846Z,100722.70
2023-06-07T10:43:48.107Z,100721.75
2023-06-07T10:46:25.297Z,100719.81
2023-06-07T10:48:58.930Z,100721.30
2023-06-07T10:51:46.379Z,100718.66
2023-06-07T10:54:29.826Z,100716.72
2023-06-07T10:56:57.805Z,100716.07
2023-06-07T10:59:26.605Z,100711.13
2023-06-07T11:01:56.083Z,100708.38
2023-06-07T11:04:36.777Z,100707.42
2023-06-07T11:07:19.833Z,100705.88
2023-06-07T11:10:02.169Z,100706.48
2023-06-07T11:12:36.365Z,100705.20
2023-06-07T11:15:32.065Z,100705.69
2023-06-07T11:18:01.960Z,100703.16
2023-06-07T11:20:51.311Z,100700.84
2023-06-07T11:23:33.365Z,100700.33
2023-06-07T11:26:12.455Z,100701.66
2023-06-07T11:28:42.019Z,100699.23
2023-06-07T11:31:13.913Z,100693.52
2023-06-07T11:33:42.586Z,100691.14
2023-06-07T11:36:12.357Z,100689.12
2023-06-07T11:38:43.443Z,100689.64
2023-06-07T11:41:11.193Z,100691.13
2023-06-07T11:43:40.684Z,100685.81
2023-06-07T11:46:08.602Z,100682.60
2023-06-07T11:48:36.685Z,100680.50
2023-06-07T11:51:04.432Z,100680.82
2023-06-07T11:53:32.761Z,100673.27
2023-06-07T11:56:01.702Z,100674.21
2023-06-07T11:58:32.221Z,100672.34
2023-06-07T12:00:59.902Z,100676.21
2023-06-07T12:03:28.301Z,100675.93
2023-06-07T12:05:56.431Z,100672.35
2023-06-07T12:08:30.701Z,100672.45
2023-06-07T12:10:58.645Z,100670.51
2023-06-07T12:13:26.486Z,100677.55
2023-06-07T12:15:58.907Z,100676.34
2023-06-07T12:18:28.836Z,100674.15
2023-06-07T12:21:08.636Z,100668.77
2023-06-07T12:23:38.571Z,100670.73
2023-06-07T12:26:16.534Z,100668.45
2023-06-07T12:28:45.197Z,100669.90
2023-06-07T12:31:17.048Z,100667.31
2023-06-07T12:33:59.665Z,100668.29
2023-06-07T12:36:34.821Z,100667.11
2023-06-07T12:39:14.758Z,100661.46
2023-06-07T12:41:42.403Z,100663.36
2023-06-07T12:44:11.516Z,100662.86
2023-06-07T12:46:41.084Z,100659.02
2023-06-07T12:49:08.723Z,100657.44
2023-06-07T12:51:38.007Z,100657.98
2023-06-07T12:54:05.777Z,100658.27
2023-06-07T12:56:33.780Z,100651.70
2023-06-07T12:59:04.311Z,100653.12
2023-06-07T13:01:32.416Z,100646.84
2023-06-07T13:04:00.908Z,100646.18
2023-06-07T13:06:29.825Z,100645.48
2023-06-07T13:09:09.118Z,100642.60
2023-06-07T13:11:39.179Z,100645.35
2023-06-07T13:14:07.509Z,100646.40
2023-06-07T13:16:35.608Z,100646.02
2023-06-07T13:23:44.155Z,100649.80
2023-06-07T13:26:11.987Z,100642.15
2023-06-07T13:28:44.910Z,100645.88
2023-06-07T13:31:12.893Z,100644.87
2023-06-07T13:33:41.921Z,100647.75
2023-06-07T13:36:09.872Z,100644.62
2023-06-07T13:38:39.156Z,100646.99
2023-06-07T13:41:06.947Z,100644.16
2023-06-07T13:43:53.951Z,100641.98
2023-06-07T13:46:22.851Z,100641.48
2023-06-07T13:48:50.635Z,100641.02
2023-06-07T13:51:19.786Z,100641.89
2023-06-07T13:53:47.460Z,100645.39
2023-06-07T13:56:15.298Z,100643.92
2023-06-07T13:58:43.018Z,100641.00
2023-06-07T14:01:10.838Z,100639.18
2023-06-07T14:03:40.223Z,100641.72
2023-06-07T14:06:08.784Z,100641.55
2023-06-07T14:08:36.545Z,100638.94
2023-06-07T14:11:05.673Z,100636.48
2023-06-07T14:13:34.941Z,100639.98
2023-06-07T14:16:03.854Z,100634.29
2023-06-07T14:18:31.599Z,100633.14
2023-06-07T14:20:59.289Z,100635.84
2023-06-07T14:23:27.306Z,100633.81
2023-06-07T14:25:54.998Z,100635.20
2023-06-07T14:28:22.707Z,100635.59
2023-06-07T14:30:50.446Z,100632.95
2023-06-07T14:33:18.205Z,100635.25
2023-06-07T14:35:45.822Z,100636.80
2023-06-07T14:38:13.390Z,100636.27
2023-06-07T14:40:41.021Z,100639.24
2023-06-07T14:43:08.762Z,100638.96
2023-06-07T14:45:36.592Z,100637.39
2023-06-07T14:48:06.341Z,100638.71
2023-06-07T14:50:34.369Z,100638.19
2023-06-07T14:53:02.092Z,100638.08
2023-06-07T14:55:29.760Z,100637.54
2023-06-07T14:58:00.782Z,100638.65
2023-06-07T15:00:32.490Z,100635.20
2023-06-07T15:03:00.693Z,100634.48
2023-06-07T15:05:29.584Z,100629.73
2023-06-07T15:07:57.203Z,100630.38
2023-06-07T15:10:24.974Z,100628.52
2023-06-07T15:12:52.821Z,100632.98
2023-06-07T15:15:22.277Z,100636.52
2023-06-07T15:17:52.107Z,100631.33
2023-06-07T15:20:21.221Z,100636.65
2023-06-07T15:22:48.984Z,100635.64
2023-06-07T15:25:16.857Z,100635.97
2023-06-07T15:27:45.142Z,100635.28
2023-06-07T15:30:13.703Z,100630.48
2023-06-07T15:32:41.418Z,100634.92
2023-06-07T15:35:12.683Z,100634.15
2023-06-07T15:37:40.933Z,100633.92
2023-06-07T15:40:09.545Z,100635.43
2023-06-07T15:42:38.947Z,100634.73
2023-06-07T15:45:07.273Z,100638.98
2023-06-07T15:47:34.923Z,100643.95
2023-06-07T15:50:02.554Z,100646.19
2023-06-07T15:52:30.972Z,100646.36
2023-06-07T15:54:58.609Z,100643.31
2023-06-07T15:57:26.309Z,100642.08
2023-06-07T15:59:53.893Z,100638.81
2023-06-07T16:02:21.577Z,100636.23
2023-06-07T16:04:49.301Z,100636.81
2023-06-07T16:07:17.075Z,100635.27
2023-06-07T16:09:44.791Z,100635.58
2023-06-07T16:12:13.678Z,100635.41
2023-06-07T16:14:42.282Z,100639.36
2023-06-07T16:17:10.092Z,100638.63
2023-06-07T16:19:38.830Z,100636.89
2023-06-07T16:22:06.687Z,100634.98
2023-06-07T16:24:35.446Z,100633.92
2023-06-07T16:27:03.198Z,100632.70
2023-06-07T16:29:31.098Z,100630.52
2023-06-07T16:31:58.741Z,100635.78
2023-06-07T16:34:26.789Z,100640.00
2023-06-07T16:36:54.501Z,100636.94
2023-06-07T16:39:22.142Z,100635.55
2023-06-07T16:41:49.818Z,100637.67
2023-06-07T16:44:19.446Z,100641.40
2023-06-07T16:46:47.332Z,100638.25
2023-06-07T16:49:16.444Z,100636.66
2023-06-07T16:51:44.164Z,100637.63
2023-06-07T16:54:12.507Z,100635.96
2023-06-07T16:56:40.173Z,100633.46
2023-06-07T16:59:07.887Z,100636.89
2023-06-07T17:01:36.776Z,100638.86
2023-06-07T17:04:04.947Z,100637.93
2023-06-07T17:06:33.212Z,100637.42
2023-06-07T17:09:00.901Z,100635.63
2023-06-07T17:11:28.615Z,100635.31
2023-06-07T17:13:56.748Z,100636.17
2023-06-07T17:16:24.891Z,100633.96
2023-06-07T17:18:52.616Z,100638.66
2023-06-07T17:21:20.945Z,100642.70
2023-06-07T17:23:48.646Z,100643.34
2023-06-07T17:26:16.378Z,100643.75
2023-06-07T17:28:44.030Z,100643.85
2023-06-07T17:31:11.755Z,100643.08
2023-06-07T17:33:41.866Z,100644.13
2023-06-07T17:36:10.135Z,100645.42
2023-06-07T17:38:38.059Z,100638.83
2023-06-07T17:41:05.764Z,100638.67
2023-06-07T17:43:33.387Z,100638.91
2023-06-07T17:46:01.156Z,100641.70
2023-06-07T17:48:28.953Z,100635.68
2023-06-07T17:50:56.670Z,100637.08
2023-06-07T17:53:24.368Z,100640.95
2023-06-07T17:55:52.037Z,100637.50
2023-06-07T17:58:19.758Z,100634.96
2023-06-07T18:00:47.526Z,100638.09
2023-06-07T18:03:19.859Z,100642.93
2023-06-07T18:05:48.056Z,100644.82
2023-06-07T18:08:15.983Z,100640.45
2023-06-07T18:10:43.784Z,100645.55
2023-06-07T18:13:11.354Z,100649.25
2023-06-07T18:15:39.055Z,100649.60
2023-06-07T18:18:06.812Z,100649.46
2023-06-07T18:20:35.553Z,100651.29
2023-06-07T18:23:06.508Z,100652.88
2023-06-07T18:25:34.130Z,100654.88
2023-06-07T18:28:02.567Z,100655.76
2023-06-07T18:30:30.191Z,100658.59
2023-06-07T18:32:59.902Z,100657.67
2023-06-07T18:35:27.651Z,100661.60
2023-06-07T18:37:57.646Z,100659.71
2023-06-07T18:40:25.323Z,100669.25
2023-06-07T18:42:53.330Z,100671.01
2023-06-07T18:45:20.922Z,100673.30
2023-06-07T18:47:48.836Z,100674.17
2023-06-07T18:50:18.335Z,100677.11
2023-06-07T18:52:46.178Z,100675.62
2023-06-07T18:55:13.841Z,100673.76
2023-06-07T18:57:41.712Z,100676.06
2023-06-07T19:00:09.879Z,100675.02
2023-06-07T19:02:39.575Z,100672.84
2023-06-07T19:05:08.146Z,100671.12
2023-06-07T19:07:36.903Z,100675.56
2023-06-07T19:10:05.229Z,100671.40
2023-06-07T19:12:32.879Z,100674.99
2023-06-07T19:15:00.652Z,100678.09
2023-06-07T19:17:28.407Z,100680.63
2023-06-07T19:19:58.322Z,100680.14
2023-06-07T19:22:26.143Z,100681.98
2023-06-07T19:24:53.753Z,100681.77
2023-06-07T19:27:22.628Z,100687.84
2023-06-07T19:29:50.306Z,100686.33
2023-06-07T19:32:18.072Z,100685.34
2023-06-07T19:34:45.834Z,100684.02
2023-06-07T19:37:13.818Z,100687.58
2023-06-07T19:39:41.495Z,100690.38
2023-06-07T19:42:14.475Z,100686.55
2023-06-07T19:44:44.262Z,100702.02
2023-06-07T19:47:11.996Z,100697.15
2023-06-07T19:49:39.699Z,100699.70
2023-06-07T19:52:09.214Z,100696.57
2023-06-07T19:54:37.737Z,100696.98
2023-06-07T19:57:07.326Z,100693.71
2023-06-07T19:59:36.630Z,100691.77
2023-06-07T20:02:07.021Z,100689.89
2023-06-07T20:04:34.923Z,100689.48
2023-06-07T20:07:06.323Z,100689.45
2023-06-07T20:09:36.953Z,100688.89
2023-06-07T20:12:05.363Z,100690.12
2023-06-07T20:14:33.582Z,100686.90
2023-06-07T20:17:01.434Z,100685.20
2023-06-07T20:19:29.678Z,100680.77
2023-06-07T20:21:59.997Z,100679.19
2023-06-07T20:24:27.678Z,100683.95
2023-06-07T20:26:55.400Z,100692.26
2023-06-07T20:29:23.100Z,100691.38
2023-06-07T20:31:51.488Z,100694.42
2023-06-07T20:34:22.686Z,100700.64
2023-06-07T20:36:50.795Z,100696.77
2023-06-07T20:39:18.472Z,100695.15
2023-06-07T20:41:46.299Z,100692.84
2023-06-07T20:44:14.146Z,100692.09
2023-06-07T20:46:41.804Z,100689.58
2023-06-07T20:49:09.509Z,100690.20
2023-06-07T20:51:38.507Z,100692.78
2023-06-07T20:54:07.038Z,100689.61
2023-06-07T20:56:34.872Z,100688.31
2023-06-07T20:59:02.714Z,100684.61
2023-06-07T21:01:32.122Z,100682.66
2023-06-07T21:03:59.967Z,100682.66
2023-06-07T21:06:27.656Z,100683.73
2023-06-07T21:08:55.269Z,100689.23
2023-06-07T21:11:23.307Z,100694.38
2023-06-07T21:13:51.086Z,100693.29
2023-06-07T21:16:19.088Z,100685.25
2023-06-07T21:18:47.088Z,100682.20
2023-06-07T21:21:14.824Z,100683.65
2023-06-07T21:23:42.672Z,100684.78
2023-06-07T21:26:10.413Z,100683.09
2023-06-07T21:28:38.038Z,100686.67
2023-06-07T21:31:06.091Z,100681.76
2023-06-07T21:33:37.644Z,100678.27
2023-06-07T21:36:06.849Z,100676.80
2023-06-07T21:38:34.468Z,100675.11
2023-06-07T21:41:02.019Z,100678.53
2023-06-07T21:43:29.615Z,100681.40
2023-06-07T21:45:57.243Z,100681.10
2023-06-07T21:48:24.919Z,100678.05
2023-06-07T21:50:52.553Z,100685.98
2023-06-07T21:53:20.148Z,100682.08
2023-06-07T21:55:47.811Z,100679.82
2023-06-07T21:58:15.488Z,100680.60
2023-06-07T22:00:43.145Z,100678.91
2023-06-07T22:03:11.209Z,100679.14
2023-06-07T22:05:39.535Z,100677.08
2023-06-07T22:08:08.179Z,100679.34
2023-06-07T22:10:36.043Z,100679.89
2023-06-07T22:13:04.330Z,100677.38
2023-06-07T22:15:32.527Z,100678.73
2023-06-07T22:18:01.946Z,100676.99
2023-06-07T22:20:30.165Z,100679.03
2023-06-07T22:22:57.829Z,100672.91
2023-06-07T22:25:39.512Z,100672.06
2023-06-07T22:28:14.414Z,100673.73
2023-06-07T22:30:42.462Z,100676.45
2023-06-07T22:33:10.497Z,100678.12
2023-06-07T22:35:41.051Z,100678.66
2023-06-07T22:38:13.454Z,100680.02
2023-06-07T22:40:43.065Z,100677.45
2023-06-07T22:43:11.957Z,100677.42
2023-06-07T22:45:39.629Z,100680.41
2023-06-07T22:48:12.319Z,100678.39
2023-06-07T22:50:41.923Z,100676.68
2023-06-07T22:53:15.545Z,100674.87
2023-06-07T22:55:43.949Z,100672.05
2023-06-07T22:58:12.195Z,100673.53
2023-06-07T23:00:41.046Z,100671.10
2023-06-07T23:03:09.919Z,100666.59
2023-06-07T23:05:38.391Z,100669.17
2023-06-07T23:08:06.270Z,100671.38
2023-06-07T23:10:36.909Z,100674.25
2023-06-07T23:13:10.638Z,100673.86
2023-06-07T23:15:43.283Z,100672.44
2023-06-07T23:18:12.761Z,100674.22
2023-06-07T23:20:42.656Z,100678.76
2023-06-07T23:23:13.418Z,100687.50
2023-06-07T23:25:41.341Z,100686.35
2023-06-07T23:28:09.099Z,100687.83
2023-06-07T23:30:37.854Z,100684.91
2023-06-07T23:33:07.550Z,100681.27
2023-06-07T23:35:36.187Z,100684.42
2023-06-07T23:38:04.935Z,100686.85
2023-06-07T23:40:32.544Z,100685.15
2023-06-07T23:43:02.164Z,100680.43
2023-06-07T23:45:32.823Z,100680.58
2023-06-07T23:48:01.609Z,100681.20
2023-06-07T23:50:30.473Z,100681.71
2023-06-07T23:52:58.195Z,100682.77
2023-06-07T23:55:26.211Z,100684.83
2023-06-07T23:57:53.885Z,100681.27
